sensor_id;sensor_type;location;lat;lon;timestamp;P1;durP1;ratioP1;P2;durP2;ratioP2
11151;SDS011;5630;49.342;10.802;2024-02-15T00:00:11;4.30;;;3.40;;
11151;SDS011;5630;49.342;10.802;2024-02-15T00:02:37;4.83;;;3.77;;
11151;SDS011;5630;49.342;10.802;2024-02-15T00:05:03;5.00;;;3.87;;
11151;SDS011;5630;49.342;10.802;2024-02-15T00:07:29;4.73;;;3.50;;
11151;SDS011;5630;49.342;10.802;2024-02-15T00:09:55;4.40;;;3.30;;
11151;SDS011;5630;49.342;10.802;2024-02-15T00:12:20;4.70;;;3.83;;
11151;SDS011;5630;49.342;10.802;2024-02-15T00:14:46;4.90;;;3.63;;
11151;SDS011;5630;49.342;10.802;2024-02-15T00:17:12;4.50;;;3.33;;
11151;SDS011;5630;49.342;10.802;2024-02-15T00:19:38;5.77;;;3.23;;
11151;SDS011;5630;49.342;10.802;2024-02-15T00:22:06;5.57;;;3.23;;
11151;SDS011;5630;49.342;10.802;2024-02-15T00:24:32;3.50;;;3.00;;
11151;SDS011;5630;49.342;10.802;2024-02-15T00:26:57;5.13;;;3.17;;
11151;SDS011;5630;49.342;10.802;2024-02-15T00:29:23;5.20;;;3.17;;
11151;SDS011;5630;49.342;10.802;2024-02-15T00:31:49;5.60;;;3.30;;
11151;SDS011;5630;49.342;10.802;2024-02-15T00:34:15;6.50;;;3.53;;
11151;SDS011;5630;49.342;10.802;2024-02-15T00:36:44;4.00;;;3.60;;
11151;SDS011;5630;49.342;10.802;2024-02-15T00:39:10;4.40;;;3.47;;
11151;SDS011;5630;49.342;10.802;2024-02-15T00:41:37;3.73;;;3.23;;
11151;SDS011;5630;49.342;10.802;2024-02-15T00:44:08;5.90;;;3.53;;
11151;SDS011;5630;49.342;10.802;2024-02-15T00:46:35;4.77;;;3.47;;
11151;SDS011;5630;49.342;10.802;2024-02-15T00:49:01;4.57;;;3.70;;
11151;SDS011;5630;49.342;10.802;2024-02-15T00:51:28;6.50;;;3.70;;
11151;SDS011;5630;49.342;10.802;2024-02-15T00:53:54;5.67;;;3.70;;
11151;SDS011;5630;49.342;10.802;2024-02-15T00:56:19;4.87;;;3.67;;
11151;SDS011;5630;49.342;10.802;2024-02-15T00:58:45;4.43;;;3.60;;
11151;SDS011;5630;49.342;10.802;2024-02-15T01:01:11;3.93;;;3.37;;
11151;SDS011;5630;49.342;10.802;2024-02-15T01:03:36;5.63;;;3.53;;
11151;SDS011;5630;49.342;10.802;2024-02-15T01:06:03;7.53;;;3.80;;
11151;SDS011;5630;49.342;10.802;2024-02-15T01:08:30;5.33;;;3.80;;
11151;SDS011;5630;49.342;10.802;2024-02-15T01:10:55;4.43;;;3.50;;
11151;SDS011;5630;49.342;10.802;2024-02-15T01:13:21;4.33;;;3.53;;
11151;SDS011;5630;49.342;10.802;2024-02-15T01:15:47;4.33;;;3.13;;
11151;SDS011;5630;49.342;10.802;2024-02-15T01:18:12;5.07;;;3.43;;
11151;SDS011;5630;49.342;10.802;2024-02-15T01:20:39;4.33;;;3.30;;
11151;SDS011;5630;49.342;10.802;2024-02-15T01:23:04;6.27;;;3.40;;
11151;SDS011;5630;49.342;10.802;2024-02-15T01:25:32;4.73;;;3.30;;
11151;SDS011;5630;49.342;10.802;2024-02-15T01:27:58;3.57;;;3.23;;
11151;SDS011;5630;49.342;10.802;2024-02-15T01:30:24;4.43;;;3.63;;
11151;SDS011;5630;49.342;10.802;2024-02-15T01:32:49;5.93;;;3.60;;
11151;SDS011;5630;49.342;10.802;2024-02-15T01:35:15;4.27;;;3.57;;
11151;SDS011;5630;49.342;10.802;2024-02-15T01:37:40;4.63;;;3.13;;
11151;SDS011;5630;49.342;10.802;2024-02-15T01:40:06;5.70;;;3.30;;
11151;SDS011;5630;49.342;10.802;2024-02-15T01:42:32;4.23;;;3.30;;
11151;SDS011;5630;49.342;10.802;2024-02-15T01:44:57;3.20;;;2.90;;
11151;SDS011;5630;49.342;10.802;2024-02-15T01:47:23;6.40;;;3.40;;
11151;SDS011;5630;49.342;10.802;2024-02-15T01:49:49;7.03;;;3.43;;
11151;SDS011;5630;49.342;10.802;2024-02-15T01:52:17;3.80;;;3.13;;
11151;SDS011;5630;49.342;10.802;2024-02-15T01:54:43;4.63;;;3.10;;
11151;SDS011;5630;49.342;10.802;2024-02-15T01:57:10;4.13;;;3.10;;
11151;SDS011;5630;49.342;10.802;2024-02-15T01:59:35;4.40;;;3.00;;
11151;SDS011;5630;49.342;10.802;2024-02-15T02:02:02;4.13;;;3.37;;
11151;SDS011;5630;49.342;10.802;2024-02-15T02:04:29;4.47;;;3.30;;
11151;SDS011;5630;49.342;10.802;2024-02-15T02:06:56;6.20;;;3.33;;
11151;SDS011;5630;49.342;10.802;2024-02-15T02:09:24;3.80;;;2.70;;
11151;SDS011;5630;49.342;10.802;2024-02-15T02:11:49;5.40;;;3.27;;
11151;SDS011;5630;49.342;10.802;2024-02-15T02:14:16;4.37;;;3.27;;
11151;SDS011;5630;49.342;10.802;2024-02-15T02:16:41;4.17;;;3.03;;
11151;SDS011;5630;49.342;10.802;2024-02-15T02:19:07;5.17;;;3.10;;
11151;SDS011;5630;49.342;10.802;2024-02-15T02:21:34;4.50;;;2.97;;
11151;SDS011;5630;49.342;10.802;2024-02-15T02:24:02;4.20;;;3.07;;
11151;SDS011;5630;49.342;10.802;2024-02-15T02:26:33;4.73;;;2.90;;
11151;SDS011;5630;49.342;10.802;2024-02-15T02:28:59;5.00;;;3.20;;
11151;SDS011;5630;49.342;10.802;2024-02-15T02:31:25;4.83;;;2.60;;
11151;SDS011;5630;49.342;10.802;2024-02-15T02:33:51;4.57;;;2.77;;
11151;SDS011;5630;49.342;10.802;2024-02-15T02:36:18;5.10;;;3.13;;
11151;SDS011;5630;49.342;10.802;2024-02-15T02:38:44;3.80;;;2.50;;
11151;SDS011;5630;49.342;10.802;2024-02-15T02:41:10;4.30;;;2.50;;
11151;SDS011;5630;49.342;10.802;2024-02-15T02:43:37;3.53;;;2.73;;
11151;SDS011;5630;49.342;10.802;2024-02-15T02:46:06;3.87;;;2.77;;
11151;SDS011;5630;49.342;10.802;2024-02-15T02:48:35;3.97;;;2.30;;
11151;SDS011;5630;49.342;10.802;2024-02-15T02:51:01;5.43;;;2.70;;
11151;SDS011;5630;49.342;10.802;2024-02-15T02:53:27;4.63;;;2.60;;
11151;SDS011;5630;49.342;10.802;2024-02-15T02:55:53;3.93;;;2.40;;
11151;SDS011;5630;49.342;10.802;2024-02-15T02:58:21;3.10;;;2.17;;
11151;SDS011;5630;49.342;10.802;2024-02-15T03:00:47;2.90;;;2.57;;
11151;SDS011;5630;49.342;10.802;2024-02-15T03:03:14;4.07;;;2.57;;
11151;SDS011;5630;49.342;10.802;2024-02-15T03:05:40;4.73;;;2.40;;
11151;SDS011;5630;49.342;10.802;2024-02-15T03:08:07;5.03;;;2.50;;
11151;SDS011;5630;49.342;10.802;2024-02-15T03:10:37;2.83;;;2.37;;
11151;SDS011;5630;49.342;10.802;2024-02-15T03:13:03;4.53;;;2.60;;
11151;SDS011;5630;49.342;10.802;2024-02-15T03:15:30;3.30;;;2.30;;
11151;SDS011;5630;49.342;10.802;2024-02-15T03:17:57;3.60;;;2.20;;
11151;SDS011;5630;49.342;10.802;2024-02-15T03:20:23;4.00;;;2.30;;
11151;SDS011;5630;49.342;10.802;2024-02-15T03:22:52;6.83;;;2.53;;
11151;SDS011;5630;49.342;10.802;2024-02-15T03:25:19;4.27;;;2.37;;
11151;SDS011;5630;49.342;10.802;2024-02-15T03:27:44;4.47;;;2.67;;
11151;SDS011;5630;49.342;10.802;2024-02-15T03:30:10;3.37;;;2.40;;
11151;SDS011;5630;49.342;10.802;2024-02-15T03:32:36;3.43;;;2.53;;
11151;SDS011;5630;49.342;10.802;2024-02-15T03:35:02;2.37;;;2.17;;
11151;SDS011;5630;49.342;10.802;2024-02-15T03:37:28;5.30;;;2.67;;
11151;SDS011;5630;49.342;10.802;2024-02-15T03:39:54;5.80;;;3.13;;
11151;SDS011;5630;49.342;10.802;2024-02-15T03:42:20;4.27;;;3.17;;
11151;SDS011;5630;49.342;10.802;2024-02-15T03:44:45;4.40;;;3.20;;
11151;SDS011;5630;49.342;10.802;2024-02-15T03:47:12;3.00;;;2.70;;
11151;SDS011;5630;49.342;10.802;2024-02-15T03:49:39;6.17;;;2.40;;
11151;SDS011;5630;49.342;10.802;2024-02-15T03:52:07;6.37;;;2.67;;
11151;SDS011;5630;49.342;10.802;2024-02-15T03:54:35;3.83;;;2.20;;
11151;SDS011;5630;49.342;10.802;2024-02-15T03:57:01;4.87;;;2.57;;
11151;SDS011;5630;49.342;10.802;2024-02-15T03:59:26;4.30;;;2.20;;
11151;SDS011;5630;49.342;10.802;2024-02-15T04:01:52;4.87;;;3.20;;
11151;SDS011;5630;49.342;10.802;2024-02-15T04:04:19;9.73;;;3.23;;
11151;SDS011;5630;49.342;10.802;2024-02-15T04:06:48;3.53;;;2.40;;
11151;SDS011;5630;49.342;10.802;2024-02-15T04:09:15;3.40;;;3.07;;
11151;SDS011;5630;49.342;10.802;2024-02-15T04:11:42;5.90;;;3.10;;
11151;SDS011;5630;49.342;10.802;2024-02-15T04:14:17;5.00;;;3.20;;
11151;SDS011;5630;49.342;10.802;2024-02-15T04:16:44;6.33;;;3.00;;
11151;SDS011;5630;49.342;10.802;2024-02-15T04:19:10;4.53;;;3.60;;
11151;SDS011;5630;49.342;10.802;2024-02-15T04:21:36;3.87;;;3.07;;
11151;SDS011;5630;49.342;10.802;2024-02-15T04:24:01;3.20;;;2.90;;
11151;SDS011;5630;49.342;10.802;2024-02-15T04:26:27;6.03;;;3.40;;
11151;SDS011;5630;49.342;10.802;2024-02-15T04:28:55;3.93;;;3.20;;
11151;SDS011;5630;49.342;10.802;2024-02-15T04:31:21;3.50;;;3.20;;
11151;SDS011;5630;49.342;10.802;2024-02-15T04:33:51;4.70;;;3.30;;
11151;SDS011;5630;49.342;10.802;2024-02-15T04:36:17;4.70;;;3.30;;
11151;SDS011;5630;49.342;10.802;2024-02-15T04:38:48;4.67;;;3.10;;
11151;SDS011;5630;49.342;10.802;2024-02-15T04:41:15;5.20;;;3.37;;
11151;SDS011;5630;49.342;10.802;2024-02-15T04:43:45;4.10;;;3.47;;
11151;SDS011;5630;49.342;10.802;2024-02-15T04:46:11;8.43;;;3.80;;
11151;SDS011;5630;49.342;10.802;2024-02-15T04:48:39;4.30;;;3.30;;
11151;SDS011;5630;49.342;10.802;2024-02-15T04:51:06;4.27;;;3.23;;
11151;SDS011;5630;49.342;10.802;2024-02-15T04:53:32;5.47;;;4.00;;
11151;SDS011;5630;49.342;10.802;2024-02-15T04:55:58;4.20;;;3.50;;
11151;SDS011;5630;49.342;10.802;2024-02-15T04:58:26;5.90;;;3.63;;
11151;SDS011;5630;49.342;10.802;2024-02-15T05:00:53;4.80;;;3.70;;
11151;SDS011;5630;49.342;10.802;2024-02-15T05:03:23;4.93;;;3.60;;
11151;SDS011;5630;49.342;10.802;2024-02-15T05:05:49;3.80;;;3.40;;
11151;SDS011;5630;49.342;10.802;2024-02-15T05:08:15;6.70;;;5.10;;
11151;SDS011;5630;49.342;10.802;2024-02-15T05:10:41;13.03;;;11.07;;
11151;SDS011;5630;49.342;10.802;2024-02-15T05:13:06;13.00;;;9.67;;
11151;SDS011;5630;49.342;10.802;2024-02-15T05:15:33;7.00;;;5.70;;
11151;SDS011;5630;49.342;10.802;2024-02-15T05:17:58;4.33;;;3.93;;
11151;SDS011;5630;49.342;10.802;2024-02-15T05:20:26;5.57;;;4.00;;
11151;SDS011;5630;49.342;10.802;2024-02-15T05:22:52;7.77;;;4.13;;
11151;SDS011;5630;49.342;10.802;2024-02-15T05:25:19;4.67;;;3.97;;
11151;SDS011;5630;49.342;10.802;2024-02-15T05:27:52;4.97;;;3.80;;
11151;SDS011;5630;49.342;10.802;2024-02-15T05:30:21;5.40;;;3.70;;
11151;SDS011;5630;49.342;10.802;2024-02-15T05:32:47;4.77;;;3.30;;
11151;SDS011;5630;49.342;10.802;2024-02-15T05:35:14;5.53;;;3.50;;
11151;SDS011;5630;49.342;10.802;2024-02-15T05:37:40;4.37;;;3.97;;
11151;SDS011;5630;49.342;10.802;2024-02-15T05:40:06;5.93;;;3.87;;
11151;SDS011;5630;49.342;10.802;2024-02-15T05:42:32;4.93;;;3.17;;
11151;SDS011;5630;49.342;10.802;2024-02-15T05:44:59;5.67;;;3.50;;
11151;SDS011;5630;49.342;10.802;2024-02-15T05:48:02;6.00;;;3.70;;
11151;SDS011;5630;49.342;10.802;2024-02-15T05:50:31;4.60;;;3.50;;
11151;SDS011;5630;49.342;10.802;2024-02-15T05:52:57;6.67;;;3.30;;
11151;SDS011;5630;49.342;10.802;2024-02-15T05:55:24;6.20;;;3.30;;
11151;SDS011;5630;49.342;10.802;2024-02-15T05:57:51;9.43;;;3.60;;
11151;SDS011;5630;49.342;10.802;2024-02-15T06:00:17;5.23;;;3.40;;
11151;SDS011;5630;49.342;10.802;2024-02-15T06:02:43;7.40;;;4.00;;
11151;SDS011;5630;49.342;10.802;2024-02-15T06:05:09;6.50;;;3.90;;
11151;SDS011;5630;49.342;10.802;2024-02-15T06:07:35;6.50;;;4.43;;
11151;SDS011;5630;49.342;10.802;2024-02-15T06:10:01;6.47;;;3.87;;
11151;SDS011;5630;49.342;10.802;2024-02-15T06:12:31;6.47;;;4.27;;
11151;SDS011;5630;49.342;10.802;2024-02-15T06:14:57;6.73;;;3.80;;
11151;SDS011;5630;49.342;10.802;2024-02-15T06:17:25;9.40;;;4.20;;
11151;SDS011;5630;49.342;10.802;2024-02-15T06:19:51;6.03;;;4.20;;
11151;SDS011;5630;49.342;10.802;2024-02-15T06:22:17;6.50;;;4.03;;
11151;SDS011;5630;49.342;10.802;2024-02-15T06:24:42;4.73;;;3.60;;
11151;SDS011;5630;49.342;10.802;2024-02-15T06:27:08;5.37;;;4.00;;
11151;SDS011;5630;49.342;10.802;2024-02-15T06:29:34;7.90;;;4.10;;
11151;SDS011;5630;49.342;10.802;2024-02-15T06:32:18;5.80;;;3.63;;
11151;SDS011;5630;49.342;10.802;2024-02-15T06:35:02;5.13;;;3.40;;
11151;SDS011;5630;49.342;10.802;2024-02-15T06:37:47;4.03;;;3.43;;
11151;SDS011;5630;49.342;10.802;2024-02-15T06:40:34;6.70;;;3.70;;
11151;SDS011;5630;49.342;10.802;2024-02-15T06:43:01;5.70;;;3.80;;
11151;SDS011;5630;49.342;10.802;2024-02-15T06:45:26;4.87;;;3.87;;
11151;SDS011;5630;49.342;10.802;2024-02-15T06:47:52;5.97;;;3.83;;
11151;SDS011;5630;49.342;10.802;2024-02-15T06:50:17;5.23;;;3.50;;
11151;SDS011;5630;49.342;10.802;2024-02-15T06:52:43;5.50;;;3.60;;
11151;SDS011;5630;49.342;10.802;2024-02-15T06:55:09;11.17;;;3.70;;
11151;SDS011;5630;49.342;10.802;2024-02-15T06:57:37;6.53;;;3.20;;
11151;SDS011;5630;49.342;10.802;2024-02-15T07:00:05;6.20;;;3.37;;
11151;SDS011;5630;49.342;10.802;2024-02-15T07:02:33;6.93;;;3.70;;
11151;SDS011;5630;49.342;10.802;2024-02-15T07:04:58;7.47;;;3.77;;
11151;SDS011;5630;49.342;10.802;2024-02-15T07:07:24;7.30;;;3.23;;
11151;SDS011;5630;49.342;10.802;2024-02-15T07:09:50;7.53;;;3.70;;
11151;SDS011;5630;49.342;10.802;2024-02-15T07:12:16;3.93;;;2.60;;
11151;SDS011;5630;49.342;10.802;2024-02-15T07:14:43;5.00;;;2.80;;
11151;SDS011;5630;49.342;10.802;2024-02-15T07:17:08;2.77;;;2.30;;
11151;SDS011;5630;49.342;10.802;2024-02-15T07:19:35;4.43;;;2.10;;
11151;SDS011;5630;49.342;10.802;2024-02-15T07:22:03;5.13;;;2.90;;
11151;SDS011;5630;49.342;10.802;2024-02-15T07:24:29;6.53;;;3.30;;
11151;SDS011;5630;49.342;10.802;2024-02-15T07:26:54;6.93;;;3.37;;
11151;SDS011;5630;49.342;10.802;2024-02-15T07:29:23;6.60;;;3.33;;
11151;SDS011;5630;49.342;10.802;2024-02-15T07:31:49;5.53;;;2.80;;
11151;SDS011;5630;49.342;10.802;2024-02-15T07:34:15;5.57;;;3.00;;
11151;SDS011;5630;49.342;10.802;2024-02-15T07:36:41;6.47;;;3.50;;
11151;SDS011;5630;49.342;10.802;2024-02-15T07:39:07;5.47;;;3.37;;
11151;SDS011;5630;49.342;10.802;2024-02-15T07:41:37;5.37;;;3.67;;
11151;SDS011;5630;49.342;10.802;2024-02-15T07:44:03;4.90;;;3.20;;
11151;SDS011;5630;49.342;10.802;2024-02-15T07:46:29;5.90;;;3.50;;
11151;SDS011;5630;49.342;10.802;2024-02-15T07:48:54;6.40;;;4.07;;
11151;SDS011;5630;49.342;10.802;2024-02-15T07:51:21;6.33;;;4.37;;
11151;SDS011;5630;49.342;10.802;2024-02-15T07:53:48;8.13;;;4.20;;
11151;SDS011;5630;49.342;10.802;2024-02-15T07:56:14;9.10;;;4.37;;
11151;SDS011;5630;49.342;10.802;2024-02-15T07:58:44;6.93;;;4.10;;
11151;SDS011;5630;49.342;10.802;2024-02-15T08:01:13;6.10;;;3.70;;
11151;SDS011;5630;49.342;10.802;2024-02-15T08:03:39;8.03;;;3.67;;
11151;SDS011;5630;49.342;10.802;2024-02-15T08:06:11;7.47;;;3.30;;
11151;SDS011;5630;49.342;10.802;2024-02-15T08:08:38;6.27;;;3.30;;
11151;SDS011;5630;49.342;10.802;2024-02-15T08:11:06;4.37;;;2.90;;
11151;SDS011;5630;49.342;10.802;2024-02-15T08:16:15;5.40;;;3.40;;
11151;SDS011;5630;49.342;10.802;2024-02-15T08:18:42;5.47;;;3.10;;
11151;SDS011;5630;49.342;10.802;2024-02-15T08:21:09;4.27;;;3.03;;
11151;SDS011;5630;49.342;10.802;2024-02-15T08:23:35;6.67;;;3.40;;
11151;SDS011;5630;49.342;10.802;2024-02-15T08:26:01;7.10;;;3.73;;
11151;SDS011;5630;49.342;10.802;2024-02-15T08:28:27;7.27;;;4.27;;
11151;SDS011;5630;49.342;10.802;2024-02-15T08:30:54;10.50;;;4.63;;
11151;SDS011;5630;49.342;10.802;2024-02-15T08:33:21;6.83;;;4.03;;
11151;SDS011;5630;49.342;10.802;2024-02-15T08:35:46;10.20;;;3.20;;
11151;SDS011;5630;49.342;10.802;2024-02-15T08:38:12;5.97;;;3.10;;
11151;SDS011;5630;49.342;10.802;2024-02-15T08:40:38;8.30;;;3.37;;
11151;SDS011;5630;49.342;10.802;2024-02-15T08:43:03;3.70;;;2.53;;
11151;SDS011;5630;49.342;10.802;2024-02-15T08:45:29;3.77;;;2.83;;
11151;SDS011;5630;49.342;10.802;2024-02-15T08:47:55;5.93;;;3.17;;
11151;SDS011;5630;49.342;10.802;2024-02-15T08:50:20;4.83;;;2.83;;
11151;SDS011;5630;49.342;10.802;2024-02-15T08:52:48;8.97;;;3.20;;
11151;SDS011;5630;49.342;10.802;2024-02-15T08:55:14;6.53;;;3.97;;
11151;SDS011;5630;49.342;10.802;2024-02-15T08:57:40;13.73;;;5.80;;
11151;SDS011;5630;49.342;10.802;2024-02-15T09:00:06;15.27;;;5.47;;
11151;SDS011;5630;49.342;10.802;2024-02-15T09:02:38;11.03;;;4.20;;
11151;SDS011;5630;49.342;10.802;2024-02-15T09:05:05;8.07;;;3.60;;
11151;SDS011;5630;49.342;10.802;2024-02-15T09:07:31;6.17;;;3.10;;
11151;SDS011;5630;49.342;10.802;2024-02-15T09:09:56;6.97;;;3.00;;
11151;SDS011;5630;49.342;10.802;2024-02-15T09:12:22;5.77;;;3.20;;
11151;SDS011;5630;49.342;10.802;2024-02-15T09:14:51;7.07;;;2.73;;
11151;SDS011;5630;49.342;10.802;2024-02-15T09:17:16;6.13;;;3.03;;
11151;SDS011;5630;49.342;10.802;2024-02-15T09:19:42;5.90;;;2.80;;
11151;SDS011;5630;49.342;10.802;2024-02-15T09:22:07;6.03;;;3.30;;
11151;SDS011;5630;49.342;10.802;2024-02-15T09:24:33;5.77;;;3.53;;
11151;SDS011;5630;49.342;10.802;2024-02-15T09:26:59;8.53;;;3.53;;
11151;SDS011;5630;49.342;10.802;2024-02-15T09:29:27;7.13;;;4.03;;
11151;SDS011;5630;49.342;10.802;2024-02-15T09:31:57;5.23;;;3.40;;
11151;SDS011;5630;49.342;10.802;2024-02-15T09:34:23;9.23;;;3.60;;
11151;SDS011;5630;49.342;10.802;2024-02-15T09:36:49;8.23;;;3.37;;
11151;SDS011;5630;49.342;10.802;2024-02-15T09:39:15;6.50;;;2.33;;
11151;SDS011;5630;49.342;10.802;2024-02-15T09:41:42;4.77;;;2.33;;
11151;SDS011;5630;49.342;10.802;2024-02-15T09:44:08;2.80;;;2.00;;
11151;SDS011;5630;49.342;10.802;2024-02-15T09:46:35;7.00;;;2.30;;
11151;SDS011;5630;49.342;10.802;2024-02-15T09:49:06;3.10;;;2.30;;
11151;SDS011;5630;49.342;10.802;2024-02-15T09:51:32;3.53;;;2.07;;
11151;SDS011;5630;49.342;10.802;2024-02-15T09:53:59;5.00;;;2.20;;
11151;SDS011;5630;49.342;10.802;2024-02-15T09:56:26;5.67;;;2.50;;
11151;SDS011;5630;49.342;10.802;2024-02-15T09:58:53;4.50;;;2.30;;
11151;SDS011;5630;49.342;10.802;2024-02-15T10:01:19;4.57;;;2.10;;
11151;SDS011;5630;49.342;10.802;2024-02-15T10:03:49;4.00;;;2.20;;
11151;SDS011;5630;49.342;10.802;2024-02-15T10:06:17;5.07;;;2.33;;
11151;SDS011;5630;49.342;10.802;2024-02-15T10:08:44;5.30;;;2.20;;
11151;SDS011;5630;49.342;10.802;2024-02-15T10:11:12;2.40;;;1.80;;
11151;SDS011;5630;49.342;10.802;2024-02-15T10:13:37;6.17;;;2.33;;
11151;SDS011;5630;49.342;10.802;2024-02-15T10:16:13;5.07;;;2.33;;
11151;SDS011;5630;49.342;10.802;2024-02-15T10:18:43;4.13;;;2.60;;
11151;SDS011;5630;49.342;10.802;2024-02-15T10:21:27;4.93;;;2.60;;
11151;SDS011;5630;49.342;10.802;2024-02-15T10:24:04;5.17;;;2.90;;
11151;SDS011;5630;49.342;10.802;2024-02-15T10:26:31;6.90;;;3.50;;
11151;SDS011;5630;49.342;10.802;2024-02-15T10:29:10;9.30;;;3.33;;
11151;SDS011;5630;49.342;10.802;2024-02-15T10:31:37;4.53;;;2.50;;
11151;SDS011;5630;49.342;10.802;2024-02-15T10:34:05;4.93;;;2.23;;
11151;SDS011;5630;49.342;10.802;2024-02-15T10:36:32;5.37;;;2.30;;
11151;SDS011;5630;49.342;10.802;2024-02-15T10:39:17;3.67;;;2.00;;
11151;SDS011;5630;49.342;10.802;2024-02-15T10:41:48;5.87;;;1.70;;
11151;SDS011;5630;49.342;10.802;2024-02-15T10:44:23;2.97;;;1.73;;
11151;SDS011;5630;49.342;10.802;2024-02-15T10:46:51;4.60;;;1.97;;
11151;SDS011;5630;49.342;10.802;2024-02-15T10:49:18;6.03;;;1.90;;
11151;SDS011;5630;49.342;10.802;2024-02-15T10:51:50;4.13;;;1.90;;
11151;SDS011;5630;49.342;10.802;2024-02-15T10:54:43;3.70;;;1.93;;
11151;SDS011;5630;49.342;10.802;2024-02-15T10:57:18;4.50;;;1.90;;
11151;SDS011;5630;49.342;10.802;2024-02-15T10:59:57;3.20;;;1.50;;
11151;SDS011;5630;49.342;10.802;2024-02-15T11:02:25;4.03;;;1.50;;
11151;SDS011;5630;49.342;10.802;2024-02-15T11:04:55;3.57;;;1.73;;
11151;SDS011;5630;49.342;10.802;2024-02-15T11:07:28;5.63;;;2.00;;
11151;SDS011;5630;49.342;10.802;2024-02-15T11:09:55;3.87;;;1.60;;
11151;SDS011;5630;49.342;10.802;2024-02-15T11:12:22;3.60;;;1.80;;
11151;SDS011;5630;49.342;10.802;2024-02-15T11:14:50;2.77;;;1.60;;
11151;SDS011;5630;49.342;10.802;2024-02-15T11:23:24;4.33;;;1.73;;
11151;SDS011;5630;49.342;10.802;2024-02-15T11:25:53;2.87;;;1.70;;
11151;SDS011;5630;49.342;10.802;2024-02-15T11:30:52;4.30;;;1.60;;
11151;SDS011;5630;49.342;10.802;2024-02-15T11:33:25;3.87;;;1.37;;
11151;SDS011;5630;49.342;10.802;2024-02-15T11:36:11;3.13;;;1.33;;
11151;SDS011;5630;49.342;10.802;2024-02-15T11:38:40;6.23;;;1.50;;
11151;SDS011;5630;49.342;10.802;2024-02-15T11:41:06;2.50;;;1.10;;
11151;SDS011;5630;49.342;10.802;2024-02-15T11:43:48;2.50;;;1.20;;
11151;SDS011;5630;49.342;10.802;2024-02-15T11:46:22;2.13;;;1.13;;
11151;SDS011;5630;49.342;10.802;2024-02-15T11:48:59;2.97;;;1.60;;
11151;SDS011;5630;49.342;10.802;2024-02-15T11:51:26;2.10;;;1.30;;
11151;SDS011;5630;49.342;10.802;2024-02-15T11:54:01;3.53;;;1.40;;
11151;SDS011;5630;49.342;10.802;2024-02-15T11:56:30;4.03;;;1.27;;
11151;SDS011;5630;49.342;10.802;2024-02-15T11:59:04;2.27;;;1.10;;
11151;SDS011;5630;49.342;10.802;2024-02-15T12:01:31;3.20;;;1.30;;
11151;SDS011;5630;49.342;10.802;2024-02-15T12:04:16;3.67;;;1.60;;
11151;SDS011;5630;49.342;10.802;2024-02-15T12:07:02;2.73;;;1.07;;
11151;SDS011;5630;49.342;10.802;2024-02-15T12:09:47;2.13;;;1.50;;
11151;SDS011;5630;49.342;10.802;2024-02-15T12:12:31;3.17;;;1.10;;
11151;SDS011;5630;49.342;10.802;2024-02-15T12:15:15;4.43;;;1.33;;
11151;SDS011;5630;49.342;10.802;2024-02-15T12:18:14;2.17;;;1.27;;
11151;SDS011;5630;49.342;10.802;2024-02-15T12:20:59;2.70;;;1.10;;
11151;SDS011;5630;49.342;10.802;2024-02-15T12:23:27;2.20;;;1.20;;
11151;SDS011;5630;49.342;10.802;2024-02-15T12:25:53;2.73;;;1.40;;
11151;SDS011;5630;49.342;10.802;2024-02-15T12:28:18;3.70;;;1.13;;
11151;SDS011;5630;49.342;10.802;2024-02-15T12:30:44;1.93;;;1.20;;
11151;SDS011;5630;49.342;10.802;2024-02-15T12:33:11;1.47;;;1.20;;
11151;SDS011;5630;49.342;10.802;2024-02-15T12:35:44;3.33;;;1.00;;
11151;SDS011;5630;49.342;10.802;2024-02-15T12:38:09;2.47;;;1.30;;
11151;SDS011;5630;49.342;10.802;2024-02-15T12:40:40;2.23;;;1.13;;
11151;SDS011;5630;49.342;10.802;2024-02-15T12:43:06;2.10;;;1.27;;
11151;SDS011;5630;49.342;10.802;2024-02-15T12:45:35;2.87;;;1.30;;
11151;SDS011;5630;49.342;10.802;2024-02-15T12:48:03;3.33;;;1.30;;
11151;SDS011;5630;49.342;10.802;2024-02-15T12:50:29;3.37;;;1.30;;
11151;SDS011;5630;49.342;10.802;2024-02-15T12:52:56;4.47;;;1.40;;
11151;SDS011;5630;49.342;10.802;2024-02-15T12:55:37;2.57;;;1.20;;
11151;SDS011;5630;49.342;10.802;2024-02-15T12:58:05;2.33;;;1.30;;
11151;SDS011;5630;49.342;10.802;2024-02-15T13:00:35;4.80;;;1.47;;
11151;SDS011;5630;49.342;10.802;2024-02-15T13:03:04;3.80;;;1.30;;
11151;SDS011;5630;49.342;10.802;2024-02-15T13:05:33;3.93;;;1.40;;
11151;SDS011;5630;49.342;10.802;2024-02-15T13:08:01;2.53;;;1.23;;
11151;SDS011;5630;49.342;10.802;2024-02-15T13:10:28;2.57;;;1.40;;
11151;SDS011;5630;49.342;10.802;2024-02-15T13:12:54;2.83;;;1.40;;
11151;SDS011;5630;49.342;10.802;2024-02-15T13:15:21;3.07;;;1.37;;
11151;SDS011;5630;49.342;10.802;2024-02-15T13:17:51;5.73;;;1.67;;
11151;SDS011;5630;49.342;10.802;2024-02-15T13:20:20;3.17;;;1.10;;
11151;SDS011;5630;49.342;10.802;2024-02-15T13:22:55;5.60;;;1.40;;
11151;SDS011;5630;49.342;10.802;2024-02-15T13:25:25;3.53;;;1.23;;
11151;SDS011;5630;49.342;10.802;2024-02-15T13:27:50;2.13;;;1.30;;
11151;SDS011;5630;49.342;10.802;2024-02-15T13:30:16;2.50;;;1.13;;
11151;SDS011;5630;49.342;10.802;2024-02-15T13:32:46;3.40;;;1.40;;
11151;SDS011;5630;49.342;10.802;2024-02-15T13:35:11;3.87;;;1.30;;
11151;SDS011;5630;49.342;10.802;2024-02-15T13:37:47;3.23;;;1.13;;
11151;SDS011;5630;49.342;10.802;2024-02-15T13:40:14;2.60;;;1.03;;
11151;SDS011;5630;49.342;10.802;2024-02-15T13:45:14;3.43;;;1.10;;
11151;SDS011;5630;49.342;10.802;2024-02-15T13:47:46;2.03;;;1.20;;
11151;SDS011;5630;49.342;10.802;2024-02-15T13:50:12;4.20;;;1.10;;
11151;SDS011;5630;49.342;10.802;2024-02-15T13:52:44;2.53;;;1.30;;
11151;SDS011;5630;49.342;10.802;2024-02-15T13:55:11;4.13;;;1.20;;
11151;SDS011;5630;49.342;10.802;2024-02-15T13:57:39;3.83;;;1.27;;
11151;SDS011;5630;49.342;10.802;2024-02-15T14:00:06;1.87;;;1.20;;
11151;SDS011;5630;49.342;10.802;2024-02-15T14:02:38;4.27;;;1.40;;
11151;SDS011;5630;49.342;10.802;2024-02-15T14:05:04;2.90;;;1.23;;
11151;SDS011;5630;49.342;10.802;2024-02-15T14:07:33;3.17;;;1.20;;
11151;SDS011;5630;49.342;10.802;2024-02-15T14:10:03;3.53;;;1.27;;
11151;SDS011;5630;49.342;10.802;2024-02-15T14:12:30;3.27;;;1.50;;
11151;SDS011;5630;49.342;10.802;2024-02-15T14:14:56;2.70;;;1.10;;
11151;SDS011;5630;49.342;10.802;2024-02-15T14:17:21;3.97;;;1.27;;
11151;SDS011;5630;49.342;10.802;2024-02-15T14:19:47;3.73;;;1.30;;
11151;SDS011;5630;49.342;10.802;2024-02-15T14:22:13;2.30;;;1.30;;
11151;SDS011;5630;49.342;10.802;2024-02-15T14:24:41;5.20;;;1.30;;
11151;SDS011;5630;49.342;10.802;2024-02-15T14:27:08;3.37;;;1.43;;
11151;SDS011;5630;49.342;10.802;2024-02-15T14:29:34;3.80;;;1.27;;
11151;SDS011;5630;49.342;10.802;2024-02-15T14:32:03;2.97;;;1.40;;
11151;SDS011;5630;49.342;10.802;2024-02-15T14:34:48;3.63;;;1.23;;
11151;SDS011;5630;49.342;10.802;2024-02-15T14:37:14;2.30;;;1.20;;
11151;SDS011;5630;49.342;10.802;2024-02-15T14:39:42;2.53;;;1.20;;
11151;SDS011;5630;49.342;10.802;2024-02-15T14:42:08;5.20;;;1.20;;
11151;SDS011;5630;49.342;10.802;2024-02-15T14:44:33;3.63;;;1.30;;
11151;SDS011;5630;49.342;10.802;2024-02-15T14:46:59;3.40;;;1.50;;
11151;SDS011;5630;49.342;10.802;2024-02-15T14:49:25;2.70;;;1.40;;
11151;SDS011;5630;49.342;10.802;2024-02-15T14:51:50;4.97;;;1.50;;
11151;SDS011;5630;49.342;10.802;2024-02-15T14:54:16;4.13;;;1.60;;
11151;SDS011;5630;49.342;10.802;2024-02-15T14:56:44;3.50;;;1.37;;
11151;SDS011;5630;49.342;10.802;2024-02-15T14:59:10;3.47;;;1.30;;
11151;SDS011;5630;49.342;10.802;2024-02-15T15:01:36;4.80;;;1.57;;
11151;SDS011;5630;49.342;10.802;2024-02-15T15:04:02;3.37;;;1.50;;
11151;SDS011;5630;49.342;10.802;2024-02-15T15:06:30;4.47;;;1.50;;